Time;durP1;ratioP1;P1;durP2;ratioP2;P2;SDS_P1;SDS_P2;PMS_P1;PMS_P2;Temp;Humidity;BMP_temperature;BMP_pressure;BME280_temperature;BME280_humidity;BME280_pressure;Samples;Min_cycle;Max_cycle;Signal;HPM_P1;HPM_P2
2022/03/01 00:01:53;;;;;;;22.60;12.57;;;1.20;99.90;;;;;;4961291;28;20176;-82
2022/03/01 00:04:19;;;;;;;18.80;11.60;;;1.20;99.90;;;;;;4951113;28;20214;-82
2022/03/01 00:06:45;;;;;;;20.70;11.97;;;1.40;99.90;;;;;;4959339;28;20183;-82
2022/03/01 00:09:11;;;;;;;22.30;11.93;;;1.40;99.90;;;;;;4952624;28;20184;-80
2022/03/01 00:11:38;;;;;;;19.93;11.10;;;1.40;99.90;;;;;;4953866;28;20214;-80
2022/03/01 00:14:05;;;;;;;22.67;12.03;;;1.30;99.90;;;;;;4952872;28;20176;-80
2022/03/01 00:16:31;;;;;;;20.00;11.50;;;1.30;99.90;;;;;;4957523;28;20203;-80
2022/03/01 00:18:57;;;;;;;19.80;11.97;;;1.30;99.90;;;;;;4960525;28;20172;-80
2022/03/01 00:21:24;;;;;;;19.77;10.53;;;1.40;99.90;;;;;;4960364;28;20207;-79
2022/03/01 00:23:50;;;;;;;23.57;12.10;;;1.40;99.90;;;;;;4959071;28;20168;-80
2022/03/01 00:26:15;;;;;;;20.03;11.30;;;1.40;99.90;;;;;;4959488;28;20277;-80
2022/03/01 00:28:42;;;;;;;19.40;11.47;;;1.40;99.90;;;;;;4954910;28;20200;-80
2022/03/01 00:31:08;;;;;;;20.00;11.40;;;1.30;99.90;;;;;;4962885;28;20239;-81
2022/03/01 00:33:33;;;;;;;20.70;11.03;;;1.40;99.90;;;;;;4959052;28;20226;-80
2022/03/01 00:35:59;;;;;;;19.67;11.13;;;1.30;99.90;;;;;;4954865;28;20200;-80
2022/03/01 00:38:29;;;;;;;22.50;11.60;;;1.30;99.90;;;;;;4957436;28;20258;-80
2022/03/01 00:40:55;;;;;;;19.03;11.03;;;1.40;99.90;;;;;;4962510;28;20175;-80
2022/03/01 00:43:21;;;;;;;18.70;11.00;;;1.40;99.90;;;;;;4955387;28;20179;-80
2022/03/01 00:45:54;;;;;;;20.60;11.20;;;1.30;99.90;;;;;;4960273;28;20218;-79
2022/03/01 00:48:20;;;;;;;18.80;10.70;;;1.30;99.90;;;;;;4955390;28;20199;-80
2022/03/01 00:50:47;;;;;;;19.83;10.90;;;1.40;99.90;;;;;;4954789;28;20606;-80
2022/03/01 00:53:12;;;;;;;19.50;10.70;;;1.40;99.90;;;;;;4958115;28;20267;-80
2022/03/01 00:55:38;;;;;;;19.83;11.10;;;1.40;99.90;;;;;;4956170;28;20563;-79
2022/03/01 00:58:04;;;;;;;19.67;10.80;;;1.40;99.90;;;;;;4951952;28;20184;-79
2022/03/01 01:00:41;;;;;;;20.20;10.60;;;1.40;99.90;;;;;;4957031;28;20199;-79
2022/03/01 01:03:07;;;;;;;22.27;10.77;;;1.40;99.90;;;;;;4967593;28;20183;-78
2022/03/01 01:05:33;;;;;;;19.73;10.97;;;1.40;99.90;;;;;;4957323;28;20712;-78
2022/03/01 01:07:59;;;;;;;17.77;10.10;;;1.40;99.90;;;;;;4955116;28;20643;-79
2022/03/01 01:10:24;;;;;;;19.93;10.57;;;1.30;99.90;;;;;;4957496;28;20543;-78
2022/03/01 01:12:53;;;;;;;18.53;10.70;;;1.30;99.90;;;;;;4960475;28;20172;-79
2022/03/01 01:15:20;;;;;;;21.00;10.67;;;1.30;99.90;;;;;;4967697;23;20209;-82
2022/03/01 01:18:04;;;;;;;20.20;10.90;;;1.30;99.90;;;;;;4966407;28;20176;-83
2022/03/01 01:20:46;;;;;;;19.33;10.50;;;1.30;99.90;;;;;;4984201;28;20245;-81
2022/03/01 01:23:19;;;;;;;18.10;9.90;;;1.30;99.90;;;;;;4954944;28;20173;-82
2022/03/01 01:25:50;;;;;;;18.63;10.73;;;1.20;99.90;;;;;;4954851;28;20212;-81
2022/03/01 01:28:26;;;;;;;17.93;10.07;;;1.20;99.90;;;;;;4963181;28;20176;-81
2022/03/01 01:30:57;;;;;;;17.10;10.10;;;1.20;99.90;;;;;;4961978;28;20571;-81
2022/03/01 01:33:39;;;;;;;17.37;9.80;;;1.20;99.90;;;;;;4956068;29;20204;-81
2022/03/01 01:36:05;;;;;;;17.73;9.43;;;1.20;99.90;;;;;;4970913;28;20212;-82
2022/03/01 01:38:37;;;;;;;20.20;10.30;;;1.20;99.90;;;;;;4961899;28;20229;-81
2022/03/01 01:41:04;;;;;;;16.63;9.63;;;1.30;99.90;;;;;;4970233;28;20191;-81
2022/03/01 01:43:30;;;;;;;19.27;9.93;;;1.30;99.90;;;;;;4978003;28;20212;-82
2022/03/01 01:45:58;;;;;;;16.63;9.50;;;1.30;99.90;;;;;;4976722;28;20208;-82
2022/03/01 01:48:26;;;;;;;16.87;9.70;;;1.30;99.90;;;;;;4960840;28;20175;-82
2022/03/01 01:50:55;;;;;;;18.30;9.63;;;1.30;99.90;;;;;;4952435;28;20216;-82
2022/03/01 01:53:23;;;;;;;17.43;9.83;;;1.20;99.90;;;;;;4948500;28;20173;-82
2022/03/01 01:56:00;;;;;;;19.47;10.47;;;1.20;99.90;;;;;;4957705;28;20200;-82
2022/03/01 01:58:39;;;;;;;18.13;9.73;;;1.20;99.90;;;;;;4978181;28;20183;-82
2022/03/01 02:01:05;;;;;;;20.83;10.97;;;1.20;99.90;;;;;;4977927;28;20180;-82
2022/03/01 02:03:31;;;;;;;16.67;9.60;;;1.30;99.90;;;;;;4962912;28;20176;-82
2022/03/01 02:06:03;;;;;;;18.20;10.53;;;1.20;99.90;;;;;;4964014;28;20222;-82
2022/03/01 02:08:37;;;;;;;17.43;9.30;;;1.20;99.90;;;;;;4981266;28;20271;-82
2022/03/01 02:11:11;;;;;;;17.37;9.30;;;1.20;99.90;;;;;;4969691;28;20176;-81
2022/03/01 02:13:37;;;;;;;17.30;9.97;;;1.30;99.90;;;;;;4953557;28;20207;-82
2022/03/01 02:16:04;;;;;;;21.53;10.37;;;1.30;99.90;;;;;;4968538;28;20216;-81
2022/03/01 02:18:32;;;;;;;18.70;9.93;;;1.30;99.90;;;;;;4964866;28;20184;-81
2022/03/01 02:21:01;;;;;;;17.37;10.07;;;1.20;99.90;;;;;;4987003;28;20220;-81
2022/03/01 02:23:30;;;;;;;19.60;10.17;;;1.20;99.90;;;;;;4971701;28;20199;-81
2022/03/01 02:25:56;;;;;;;19.67;10.00;;;1.10;99.90;;;;;;4978482;28;20211;-81
2022/03/01 02:28:24;;;;;;;17.70;9.37;;;1.00;99.90;;;;;;4973255;28;20172;-81
2022/03/01 02:30:55;;;;;;;15.57;9.60;;;1.00;99.90;;;;;;4975195;28;20240;-81
2022/03/01 02:33:23;;;;;;;19.67;10.23;;;1.00;99.90;;;;;;4968086;28;20176;-82
2022/03/01 02:35:52;;;;;;;17.40;9.60;;;0.90;99.90;;;;;;4969135;28;20223;-86
2022/03/01 02:38:18;;;;;;;16.73;10.00;;;0.90;99.90;;;;;;4958496;28;20246;-87
2022/03/01 02:40:44;;;;;;;20.80;10.17;;;0.90;99.90;;;;;;4969075;28;20252;-88
2022/03/01 02:43:10;;;;;;;19.57;10.33;;;0.90;99.90;;;;;;4978340;28;20179;-87
2022/03/01 02:45:37;;;;;;;19.03;10.20;;;0.90;99.90;;;;;;4984301;28;20215;-88
2022/03/01 02:48:03;;;;;;;16.07;9.73;;;0.90;99.90;;;;;;4950823;28;20259;-82
2022/03/01 02:50:29;;;;;;;16.07;9.57;;;0.90;99.90;;;;;;4965071;28;20188;-82
2022/03/01 02:52:54;;;;;;;19.53;9.70;;;0.90;99.90;;;;;;4962572;28;20177;-82
2022/03/01 02:55:20;;;;;;;17.17;9.60;;;0.90;99.90;;;;;;4963494;28;20203;-81
2022/03/01 02:57:46;;;;;;;19.17;10.00;;;0.90;99.90;;;;;;4982005;28;20941;-81
2022/03/01 03:00:12;;;;;;;16.90;9.90;;;0.90;99.90;;;;;;4979887;28;20682;-82
2022/03/01 03:02:38;;;;;;;23.47;10.43;;;0.90;99.90;;;;;;4965548;28;20691;-82
2022/03/01 03:05:06;;;;;;;18.33;10.80;;;0.80;99.90;;;;;;4975324;28;20205;-82
2022/03/01 03:07:32;;;;;;;18.97;9.37;;;0.80;99.90;;;;;;4952788;29;20180;-82
2022/03/01 03:09:57;;;;;;;15.90;9.27;;;0.80;99.90;;;;;;4979381;28;20184;-82
2022/03/01 03:12:23;;;;;;;19.60;10.03;;;0.80;99.90;;;;;;4965211;28;20231;-82
2022/03/01 03:14:49;;;;;;;17.83;10.10;;;0.70;99.90;;;;;;4964363;28;20187;-81
2022/03/01 03:17:15;;;;;;;17.77;10.20;;;0.70;99.90;;;;;;4981097;28;20223;-82
2022/03/01 03:19:41;;;;;;;19.03;10.17;;;0.70;99.90;;;;;;4977399;28;20211;-82
2022/03/01 03:22:07;;;;;;;19.10;10.53;;;0.60;99.90;;;;;;4962170;28;20179;-82
2022/03/01 03:24:33;;;;;;;19.37;9.77;;;0.70;99.90;;;;;;4946524;28;20202;-82
2022/03/01 03:26:59;;;;;;;17.20;10.13;;;0.80;99.90;;;;;;4977948;28;20200;-82
2022/03/01 03:29:25;;;;;;;18.50;10.60;;;0.70;99.90;;;;;;4963123;28;20195;-82
2022/03/01 03:31:56;;;;;;;19.87;9.93;;;0.70;99.90;;;;;;4970653;28;20188;-82
2022/03/01 03:34:23;;;;;;;18.37;10.33;;;0.60;99.90;;;;;;4976430;28;20176;-82
2022/03/01 03:36:48;;;;;;;17.17;10.80;;;0.70;99.90;;;;;;4964942;28;20188;-82
2022/03/01 03:39:14;;;;;;;16.37;9.90;;;0.60;99.90;;;;;;4948210;28;20243;-80
2022/03/01 03:41:40;;;;;;;19.13;10.33;;;0.50;99.90;;;;;;4946827;28;20187;-81
2022/03/01 03:44:07;;;;;;;21.83;10.90;;;0.40;99.90;;;;;;4961782;28;20172;-81
2022/03/01 03:46:33;;;;;;;19.77;10.13;;;0.40;99.90;;;;;;4978470;28;20223;-81
2022/03/01 03:48:59;;;;;;;17.23;9.80;;;0.40;99.90;;;;;;4958568;28;20211;-81
2022/03/01 03:51:26;;;;;;;17.23;9.87;;;0.30;99.90;;;;;;4978676;28;20180;-81
2022/03/01 03:53:54;;;;;;;18.13;10.20;;;0.30;99.90;;;;;;4968152;28;20621;-82
2022/03/01 03:56:20;;;;;;;17.00;9.53;;;0.30;99.90;;;;;;4977841;28;20559;-82
2022/03/01 03:58:45;;;;;;;19.17;9.97;;;0.30;99.90;;;;;;4985445;28;20184;-81
2022/03/01 04:01:11;;;;;;;20.10;9.90;;;0.30;99.90;;;;;;4982338;28;20180;-82
2022/03/01 04:03:37;;;;;;;18.20;9.63;;;0.30;99.90;;;;;;4969123;28;20179;-81
2022/03/01 04:06:04;;;;;;;16.37;9.33;;;0.30;99.90;;;;;;4968839;28;20230;-82
2022/03/01 04:08:29;;;;;;;19.93;10.47;;;0.20;99.90;;;;;;4972292;28;20180;-82
2022/03/01 04:10:56;;;;;;;18.97;9.50;;;0.20;99.90;;;;;;4966240;28;20192;-80
2022/03/01 04:13:24;;;;;;;16.73;9.20;;;0.10;99.90;;;;;;4969175;28;20176;-82
2022/03/01 04:15:50;;;;;;;16.93;9.57;;;0.10;99.90;;;;;;4966801;28;20219;-82
2022/03/01 04:18:16;;;;;;;17.87;9.70;;;0.10;99.90;;;;;;4965364;28;20188;-81
2022/03/01 04:20:42;;;;;;;17.67;10.20;;;0.20;99.90;;;;;;4984708;28;20210;-81
2022/03/01 04:23:07;;;;;;;17.67;9.77;;;0.20;99.90;;;;;;4985226;28;20180;-82
2022/03/01 04:25:34;;;;;;;18.57;9.77;;;0.10;99.90;;;;;;4961944;28;20207;-82
2022/03/01 04:27:59;;;;;;;17.40;9.77;;;0.00;99.90;;;;;;4969616;28;20625;-82
2022/03/01 04:30:27;;;;;;;16.57;10.17;;;-0.10;99.90;;;;;;4984025;28;20179;-85
2022/03/01 04:32:54;;;;;;;18.13;10.87;;;-0.20;99.90;;;;;;4985430;28;20187;-82
2022/03/01 04:35:20;;;;;;;17.23;9.90;;;-0.10;99.90;;;;;;4958556;28;20211;-83
2022/03/01 04:37:46;;;;;;;18.80;9.90;;;-0.20;99.90;;;;;;4982791;28;20176;-82
2022/03/01 04:40:13;;;;;;;18.47;10.17;;;-0.20;99.90;;;;;;4965748;28;20185;-82
2022/03/01 04:42:39;;;;;;;17.77;10.23;;;-0.20;99.90;;;;;;4983385;28;20513;-82
2022/03/01 04:45:08;;;;;;;18.77;9.97;;;-0.20;99.90;;;;;;4966214;28;20211;-82
2022/03/01 04:47:34;;;;;;;16.23;9.40;;;-0.30;99.90;;;;;;4965558;28;20180;-82
2022/03/01 04:50:00;;;;;;;20.00;10.27;;;-0.30;99.90;;;;;;4975242;28;20264;-82
2022/03/01 04:52:25;;;;;;;19.27;10.30;;;-0.20;99.90;;;;;;4984112;28;20210;-82
2022/03/01 04:54:51;;;;;;;17.63;10.27;;;-0.20;99.90;;;;;;4980141;28;20178;-82
2022/03/01 04:57:17;;;;;;;20.37;10.90;;;-0.20;99.90;;;;;;4968763;28;20215;-82
2022/03/01 04:59:43;;;;;;;18.30;10.07;;;-0.20;99.90;;;;;;4983597;28;20189;-81
2022/03/01 05:02:08;;;;;;;18.40;9.97;;;-0.30;99.90;;;;;;4967899;28;20210;-81
2022/03/01 05:04:34;;;;;;;17.63;10.57;;;-0.20;99.90;;;;;;4983433;28;20214;-81
2022/03/01 05:07:00;;;;;;;17.67;9.43;;;-0.30;99.90;;;;;;4968450;28;20232;-81
2022/03/01 05:09:26;;;;;;;17.53;9.67;;;-0.30;99.90;;;;;;4982152;28;20183;-81
2022/03/01 05:11:52;;;;;;;15.93;9.30;;;-0.40;99.90;;;;;;4971521;28;20179;-82
2022/03/01 05:14:19;;;;;;;16.67;9.80;;;-0.50;99.90;;;;;;4982278;28;20178;-81
2022/03/01 05:16:45;;;;;;;19.43;9.83;;;-0.40;99.90;;;;;;4967198;28;20224;-81
2022/03/01 05:19:13;;;;;;;16.70;10.03;;;-0.40;99.90;;;;;;4973452;28;20195;-82
2022/03/01 05:21:39;;;;;;;19.07;9.83;;;-0.40;99.90;;;;;;4956460;28;20180;-82
2022/03/01 05:24:05;;;;;;;16.07;9.67;;;-0.40;99.90;;;;;;4953768;28;20187;-82
2022/03/01 05:26:32;;;;;;;16.53;9.57;;;-0.50;99.90;;;;;;4979277;28;20205;-82
2022/03/01 05:28:58;;;;;;;16.40;9.43;;;-0.60;99.90;;;;;;4962314;28;20205;-81
2022/03/01 05:31:23;;;;;;;18.77;9.80;;;-0.60;99.90;;;;;;4971603;28;20178;-81
2022/03/01 05:33:49;;;;;;;16.93;9.73;;;-0.60;99.90;;;;;;4974155;28;20184;-81
2022/03/01 05:36:15;;;;;;;20.90;10.77;;;-0.70;99.90;;;;;;4983751;28;20335;-81
2022/03/01 05:38:42;;;;;;;18.83;9.97;;;-0.70;99.90;;;;;;4965358;28;20335;-82
2022/03/01 05:41:08;;;;;;;21.67;10.40;;;-0.70;99.90;;;;;;4957770;29;21312;-81
2022/03/01 05:43:35;;;;;;;14.63;9.57;;;-0.80;99.90;;;;;;4955477;29;20279;-81
2022/03/01 05:46:02;;;;;;;24.97;10.83;;;-0.80;99.90;;;;;;4965966;28;20214;-81
2022/03/01 05:48:27;;;;;;;18.83;10.07;;;-0.70;99.90;;;;;;4979138;28;20181;-81
2022/03/01 05:50:54;;;;;;;19.03;10.67;;;-0.70;99.90;;;;;;4976978;28;20180;-81
2022/03/01 05:53:20;;;;;;;18.97;10.93;;;-0.60;99.90;;;;;;4981162;28;20530;-82
2022/03/01 05:55:46;;;;;;;23.10;10.90;;;-0.50;99.90;;;;;;4976500;28;20723;-80
2022/03/01 05:58:11;;;;;;;21.83;11.13;;;-0.50;99.90;;;;;;4962692;29;20272;-81
2022/03/01 06:00:37;;;;;;;16.30;9.90;;;-0.60;99.90;;;;;;4968529;29;20181;-82
2022/03/01 06:03:03;;;;;;;19.57;9.73;;;-0.70;99.90;;;;;;4967244;28;20183;-82
2022/03/01 06:05:31;;;;;;;19.30;10.27;;;-0.80;99.90;;;;;;4983783;28;20271;-81
2022/03/01 06:07:58;;;;;;;18.23;9.93;;;-0.80;99.90;;;;;;4976171;28;20162;-80
2022/03/01 06:10:25;;;;;;;18.43;10.00;;;-0.90;99.90;;;;;;4992349;28;20171;-81
2022/03/01 06:12:51;;;;;;;20.20;10.47;;;-0.80;99.90;;;;;;4969585;28;20210;-81
2022/03/01 06:15:16;;;;;;;21.93;10.87;;;-0.70;99.90;;;;;;4990847;28;20192;-82
2022/03/01 06:17:42;;;;;;;17.80;10.13;;;-0.90;99.90;;;;;;4979606;28;20188;-81
2022/03/01 06:20:09;;;;;;;19.40;10.50;;;-0.90;99.90;;;;;;4995965;28;20190;-81
2022/03/01 06:22:36;;;;;;;20.60;10.63;;;-0.90;99.90;;;;;;4979497;28;20184;-81
2022/03/01 06:25:03;;;;;;;17.53;10.07;;;-0.90;99.90;;;;;;4976180;29;20224;-81
2022/03/01 06:27:29;;;;;;;19.27;10.43;;;-0.90;99.90;;;;;;4975700;28;20180;-81
2022/03/01 06:29:55;;;;;;;19.57;10.60;;;-1.00;99.90;;;;;;4989882;28;20183;-81
2022/03/01 06:32:21;;;;;;;17.10;10.20;;;-0.90;99.90;;;;;;4974141;28;20215;-81
2022/03/01 06:34:47;;;;;;;19.77;11.27;;;-0.90;99.90;;;;;;4967046;28;20179;-81
2022/03/01 06:37:13;;;;;;;22.30;10.27;;;-0.90;99.90;;;;;;4976543;28;20209;-82
2022/03/01 06:39:44;;;;;;;19.40;10.47;;;-0.90;99.90;;;;;;4977438;28;20161;-82
2022/03/01 06:42:11;;;;;;;16.67;10.17;;;-0.90;99.90;;;;;;4975845;29;20232;-82
2022/03/01 06:44:37;;;;;;;18.03;10.40;;;-0.90;99.90;;;;;;4968913;29;20209;-81
2022/03/01 06:47:04;;;;;;;19.07;10.53;;;-0.90;99.90;;;;;;4984291;28;20206;-79
2022/03/01 06:49:31;;;;;;;20.17;11.20;;;-0.80;99.90;;;;;;4984701;28;20183;-80
2022/03/01 06:52:02;;;;;;;21.23;11.33;;;-0.80;99.90;;;;;;4984417;28;20175;-81
2022/03/01 06:54:28;;;;;;;19.30;10.10;;;-0.70;99.90;;;;;;4968463;29;20184;-81
2022/03/01 06:56:54;;;;;;;21.80;10.47;;;-0.60;99.90;;;;;;4957692;28;20203;-81
2022/03/01 06:59:20;;;;;;;17.73;9.83;;;-0.50;99.90;;;;;;4963098;28;20178;-81
2022/03/01 07:01:45;;;;;;;23.50;10.83;;;-0.50;99.90;;;;;;4962203;28;20194;-81
2022/03/01 07:04:11;;;;;;;20.00;10.80;;;-0.60;99.90;;;;;;4949525;28;20259;-81
2022/03/01 07:06:37;;;;;;;18.57;10.33;;;-0.70;99.90;;;;;;4963669;28;20198;-82
2022/03/01 07:09:11;;;;;;;19.80;10.83;;;-0.80;99.90;;;;;;4961296;28;20220;-82
2022/03/01 07:11:37;;;;;;;19.47;11.13;;;-0.70;99.90;;;;;;4958500;29;20229;-82
2022/03/01 07:14:03;;;;;;;18.43;10.60;;;-0.70;99.90;;;;;;4969063;28;20179;-81
2022/03/01 07:16:29;;;;;;;19.60;10.20;;;-0.60;99.90;;;;;;4960192;28;20217;-80
2022/03/01 07:18:55;;;;;;;16.37;10.10;;;-0.50;99.90;;;;;;4977609;28;20200;-80
2022/03/01 07:21:26;;;;;;;19.43;10.70;;;-0.40;99.90;;;;;;4962140;28;20178;-81
2022/03/01 07:23:51;;;;;;;23.63;10.63;;;-0.40;99.90;;;;;;4977429;28;20179;-81
2022/03/01 07:26:17;;;;;;;23.60;11.37;;;-0.40;99.90;;;;;;4946673;28;20206;-81
2022/03/01 07:28:43;;;;;;;21.10;11.10;;;-0.40;99.90;;;;;;4944963;28;20270;-81
2022/03/01 07:31:09;;;;;;;22.30;11.10;;;-0.40;99.90;;;;;;4973233;28;20176;-81
2022/03/01 07:33:35;;;;;;;21.97;11.00;;;-0.40;99.90;;;;;;4971640;28;20204;-81
2022/03/01 07:36:09;;;;;;;19.00;10.80;;;-0.30;99.90;;;;;;4962580;28;20211;-80
2022/03/01 07:38:34;;;;;;;23.83;11.37;;;-0.20;99.90;;;;;;4965104;28;20180;-81
2022/03/01 07:41:00;;;;;;;17.73;10.77;;;-0.10;99.90;;;;;;4965882;28;20188;-81
2022/03/01 07:43:26;;;;;;;20.10;11.37;;;0.00;99.90;;;;;;4962428;29;20188;-80
2022/03/01 07:45:51;;;;;;;19.53;11.70;;;0.00;99.90;;;;;;4951162;28;20208;-81
2022/03/01 07:48:17;;;;;;;21.07;11.80;;;-0.10;99.90;;;;;;4982237;28;20184;-80
2022/03/01 07:50:43;;;;;;;21.73;11.50;;;-0.20;99.90;;;;;;4981832;28;20182;-81
2022/03/01 07:53:09;;;;;;;21.97;11.37;;;-0.20;99.90;;;;;;4965081;28;20182;-81
2022/03/01 07:55:35;;;;;;;22.73;10.87;;;-0.20;99.90;;;;;;4971275;28;20198;-82
2022/03/01 07:58:01;;;;;;;24.37;11.73;;;-0.20;99.90;;;;;;4981633;28;20258;-80
2022/03/01 08:00:27;;;;;;;19.20;11.50;;;0.00;99.90;;;;;;4955311;28;20179;-81
2022/03/01 08:02:55;;;;;;;22.10;11.97;;;0.00;99.90;;;;;;4965522;28;20178;-81
2022/03/01 08:05:21;;;;;;;18.30;11.70;;;0.00;99.90;;;;;;4974594;28;20287;-82
2022/03/01 08:07:47;;;;;;;20.67;11.10;;;0.00;99.90;;;;;;4974120;28;20175;-81
2022/03/01 08:10:13;;;;;;;20.27;11.13;;;0.00;99.90;;;;;;4985275;28;20235;-81
2022/03/01 08:12:40;;;;;;;20.53;11.43;;;0.00;99.90;;;;;;4982947;28;20180;-82
2022/03/01 08:15:06;;;;;;;18.07;11.13;;;0.20;99.90;;;;;;4977146;28;20280;-82
2022/03/01 08:17:32;;;;;;;22.27;11.73;;;0.30;99.90;;;;;;4981760;28;20595;-82
2022/03/01 08:20:00;;;;;;;18.70;11.20;;;0.40;99.90;;;;;;4969421;28;20216;-81
2022/03/01 08:22:29;;;;;;;21.33;10.90;;;0.60;99.90;;;;;;4982335;28;20235;-80
2022/03/01 08:24:58;;;;;;;17.97;10.90;;;0.80;99.90;;;;;;4981835;28;20199;-80
2022/03/01 08:27:24;;;;;;;23.37;12.40;;;1.10;99.90;;;;;;4964616;28;20184;-81
2022/03/01 08:29:53;;;;;;;21.77;11.40;;;1.20;99.90;;;;;;4971388;28;20184;-81
2022/03/01 08:32:28;;;;;;;22.07;11.30;;;1.30;99.90;;;;;;4974854;28;20182;-81
2022/03/01 08:34:54;;;;;;;20.70;11.70;;;1.30;99.90;;;;;;4963420;28;20180;-80
2022/03/01 08:37:20;;;;;;;19.00;11.23;;;1.30;99.90;;;;;;4978797;28;20219;-81
2022/03/01 08:39:46;;;;;;;19.37;11.50;;;1.30;99.90;;;;;;4962052;28;21226;-81
2022/03/01 08:42:15;;;;;;;19.57;11.97;;;1.40;99.90;;;;;;4949321;28;20188;-82
2022/03/01 08:44:44;;;;;;;21.57;11.47;;;1.50;99.90;;;;;;4981550;28;20254;-81
2022/03/01 08:47:19;;;;;;;22.30;11.40;;;1.50;99.90;;;;;;4964366;28;20199;-81
2022/03/01 08:49:45;;;;;;;22.67;10.93;;;1.50;99.90;;;;;;4964188;28;20171;-80
2022/03/01 08:52:14;;;;;;;18.43;11.63;;;1.50;99.90;;;;;;4951710;29;20268;-80
2022/03/01 08:54:41;;;;;;;20.70;11.70;;;1.50;99.90;;;;;;4956625;29;20204;-80
2022/03/01 08:57:10;;;;;;;20.73;11.27;;;1.50;99.90;;;;;;4954623;29;20664;-80
2022/03/01 08:59:39;;;;;;;21.73;12.27;;;1.70;99.90;;;;;;4962226;29;20244;-81
2022/03/01 09:02:06;;;;;;;19.43;10.83;;;1.70;99.90;;;;;;4963116;28;20223;-80
2022/03/01 09:04:32;;;;;;;17.60;11.13;;;1.60;99.90;;;;;;4969877;28;20246;-81
2022/03/01 09:06:58;;;;;;;23.73;12.37;;;1.70;99.90;;;;;;4981560;28;20667;-81
2022/03/01 09:09:23;;;;;;;19.83;11.57;;;1.60;99.90;;;;;;4977408;28;20263;-81
2022/03/01 09:11:49;;;;;;;19.57;10.60;;;1.70;99.90;;;;;;4966431;28;20265;-81
2022/03/01 09:14:16;;;;;;;21.07;11.37;;;1.70;99.90;;;;;;4975909;28;20180;-79
2022/03/01 09:16:42;;;;;;;22.17;12.40;;;1.80;99.90;;;;;;4986925;28;20603;-80
2022/03/01 09:19:10;;;;;;;21.57;11.90;;;1.90;99.90;;;;;;4971662;28;20550;-79
2022/03/01 09:21:42;;;;;;;19.43;11.33;;;2.00;99.90;;;;;;4978458;28;20180;-80
2022/03/01 09:24:16;;;;;;;20.97;12.00;;;2.10;99.90;;;;;;4981397;28;20175;-80
2022/03/01 09:27:04;;;;;;;;;;;;;;;;;;;;;
2022/03/01 09:29:31;;;;;;;19.10;11.30;;;2.10;99.90;;;;;;4979662;28;20176;-81
2022/03/01 09:32:05;;;;;;;22.27;12.43;;;2.10;99.90;;;;;;4962478;28;20255;-81
2022/03/01 09:34:36;;;;;;;19.27;11.23;;;2.10;99.90;;;;;;4971910;28;20647;-81
2022/03/01 09:37:03;;;;;;;18.73;11.60;;;2.10;99.90;;;;;;4976993;28;20211;-82
2022/03/01 09:39:29;;;;;;;21.97;11.30;;;2.20;99.90;;;;;;4946035;28;20248;-82
2022/03/01 09:42:02;;;;;;;22.30;11.83;;;2.20;99.90;;;;;;4978006;28;20211;-81
2022/03/01 09:44:49;;;;;;;17.53;10.97;;;2.30;99.90;;;;;;4963563;28;20286;-82
2022/03/01 09:47:52;;;;;;;21.83;11.60;;;2.40;99.90;;;;;;4961266;28;20287;-81
2022/03/01 09:50:52;;;;;;;19.93;11.67;;;2.70;99.90;;;;;;4958757;28;20195;-81
2022/03/01 09:53:33;;;;;;;20.27;11.80;;;2.80;99.90;;;;;;4960478;28;20271;-82
2022/03/01 09:56:18;;;;;;;22.67;11.00;;;3.10;99.90;;;;;;4970603;28;20235;-82
2022/03/01 10:02:12;;;;;;;20.20;11.70;;;3.50;99.90;;;;;;4976852;28;20188;-82
2022/03/01 10:05:47;;;;;;;20.50;11.40;;;3.70;99.90;;;;;;4969280;28;20198;-82
2022/03/01 10:08:22;;;;;;;20.13;11.53;;;3.80;99.90;;;;;;4969011;28;20188;-81
2022/03/01 10:10:58;;;;;;;21.80;12.10;;;3.90;99.90;;;;;;4975488;28;20211;-79
2022/03/01 10:13:48;;;;;;;;;;;;;;;;;;;;;
2022/03/01 10:16:58;;;;;;;22.43;11.47;;;4.10;99.90;;;;;;4983576;28;20266;-82
2022/03/01 10:23:02;;;;;;;20.57;11.07;;;4.70;99.30;;;;;;4960388;28;20181;-80
2022/03/01 10:25:30;;;;;;;20.03;11.50;;;4.80;98.60;;;;;;4978411;28;20211;-81
2022/03/01 10:27:56;;;;;;;21.30;11.70;;;4.80;98.30;;;;;;4979420;28;20172;-82
2022/03/01 10:30:24;;;;;;;18.67;11.20;;;5.00;98.10;;;;;;4963296;28;20175;-81
2022/03/01 10:33:16;;;;;;;17.97;11.40;;;5.00;98.00;;;;;;4964580;28;20172;-80
2022/03/01 10:36:06;;;;;;;18.30;11.50;;;5.10;97.60;;;;;;4977934;28;20671;-80
2022/03/01 10:39:13;;;;;;;20.40;11.27;;;5.30;96.80;;;;;;4965845;28;20180;-81
2022/03/01 10:42:12;;;;;;;19.63;12.03;;;5.70;96.90;;;;;;4967502;28;20240;-82
2022/03/01 10:45:09;;;;;;;20.67;11.60;;;6.10;96.30;;;;;;4969493;28;20205;-81
2022/03/01 10:48:37;;;;;;;17.30;10.97;;;6.40;95.00;;;;;;4971091;28;20176;-81
2022/03/01 10:51:08;;;;;;;18.13;11.37;;;6.30;94.30;;;;;;4957771;28;20209;-81
2022/03/01 10:53:46;;;;;;;17.93;10.63;;;6.30;94.10;;;;;;4950186;28;20186;-81
2022/03/01 10:56:36;;;;;;;16.53;11.30;;;6.40;94.10;;;;;;4950734;28;20203;-82
2022/03/01 10:59:08;;;;;;;22.53;12.37;;;6.70;94.00;;;;;;4965688;28;20193;-82
2022/03/01 11:01:43;;;;;;;17.57;11.70;;;6.80;93.00;;;;;;4982641;28;20215;-81
2022/03/01 11:08:08;;;;;;;26.13;15.67;;;6.70;92.40;;;;;;4973642;28;20532;-81
2022/03/01 11:11:01;;;;;;;20.43;13.23;;;6.80;92.70;;;;;;4997246;28;20206;-82
2022/03/01 11:13:43;;;;;;;20.67;13.07;;;7.20;91.60;;;;;;4984859;28;20183;-82
2022/03/01 11:16:55;;;;;;;19.63;11.63;;;7.60;91.00;;;;;;4969017;28;20216;-82
2022/03/01 11:19:58;;;;;;;21.73;13.10;;;8.00;88.50;;;;;;4983373;28;20183;-82
2022/03/01 11:22:46;;;;;;;20.50;12.07;;;8.60;85.90;;;;;;4981912;28;20203;-81
2022/03/01 11:26:08;;;;;;;19.07;12.07;;;8.70;81.80;;;;;;4978395;28;20299;-83
2022/03/01 11:33:43;;;;;;;19.33;12.00;;;8.10;81.70;;;;;;4955301;28;20198;-81
2022/03/01 11:37:06;;;;;;;20.83;12.23;;;7.90;83.00;;;;;;4880716;29;20233;-79
2022/03/01 12:29:17;;;;;;;;;;;;;;;;;;;;;
2022/03/01 13:18:41;;;;;;;20.63;12.40;;;6.70;88.50;;;;;;5359593;23;20231;-82
2022/03/01 13:21:07;;;;;;;18.20;11.67;;;6.70;89.00;;;;;;4990137;28;20180;-81
2022/03/01 13:23:34;;;;;;;18.83;11.93;;;6.70;88.70;;;;;;4988031;28;20162;-81
2022/03/01 13:26:01;;;;;;;16.70;11.47;;;6.80;89.80;;;;;;4987928;28;20225;-80
2022/03/01 13:28:36;;;;;;;18.57;12.40;;;6.90;88.40;;;;;;4975033;28;20205;-80
2022/03/01 13:31:04;;;;;;;19.07;11.97;;;6.90;88.20;;;;;;5017737;28;20162;-80
2022/03/01 13:33:30;;;;;;;18.23;11.50;;;6.90;88.70;;;;;;5018275;28;20752;-80
2022/03/01 13:35:58;;;;;;;18.10;11.60;;;7.20;88.40;;;;;;4996896;28;20649;-81
2022/03/01 13:38:25;;;;;;;18.47;11.60;;;7.20;87.40;;;;;;4999262;28;20214;-80
2022/03/01 13:40:51;;;;;;;20.40;11.97;;;7.20;87.50;;;;;;5002495;28;20200;-81
2022/03/01 13:43:24;;;;;;;19.23;11.50;;;7.20;87.50;;;;;;5002311;28;20182;-80
2022/03/01 13:45:56;;;;;;;20.13;11.67;;;7.30;86.60;;;;;;5002699;28;20201;-81
2022/03/01 13:48:24;;;;;;;18.10;11.50;;;7.30;87.80;;;;;;4986159;28;20190;-81
2022/03/01 13:50:50;;;;;;;17.67;11.67;;;7.30;87.40;;;;;;5002228;28;20521;-80
2022/03/01 13:53:23;;;;;;;19.37;12.27;;;7.30;87.50;;;;;;4993331;28;20194;-81
2022/03/01 13:55:51;;;;;;;20.50;11.77;;;7.40;86.50;;;;;;4999057;28;20259;-81
2022/03/01 13:58:22;;;;;;;18.87;11.83;;;7.40;86.80;;;;;;5000428;28;20216;-82
2022/03/01 14:00:51;;;;;;;17.87;11.60;;;7.50;88.00;;;;;;5003596;28;20204;-81
2022/03/01 14:03:30;;;;;;;19.03;11.90;;;7.70;87.60;;;;;;5004399;28;20195;-81
2022/03/01 14:06:07;;;;;;;17.80;11.80;;;7.80;85.90;;;;;;4984175;28;20268;-81
2022/03/01 14:08:34;;;;;;;16.80;11.47;;;7.80;84.30;;;;;;5004432;28;20198;-81
2022/03/01 14:11:03;;;;;;;18.87;11.50;;;7.90;84.20;;;;;;5020059;28;20170;-80
2022/03/01 14:13:33;;;;;;;20.17;12.30;;;7.90;84.00;;;;;;5006012;28;20174;-80
2022/03/01 14:16:08;;;;;;;17.73;12.10;;;8.00;84.50;;;;;;5005532;28;20657;-81
2022/03/01 14:18:39;;;;;;;19.87;11.77;;;8.10;85.40;;;;;;5005347;28;20252;-81
2022/03/01 14:21:07;;;;;;;22.17;12.30;;;8.20;85.30;;;;;;5009193;28;20221;-81
2022/03/01 14:23:33;;;;;;;18.30;12.33;;;8.30;84.30;;;;;;5012018;28;20174;-80
2022/03/01 14:25:59;;;;;;;19.97;12.37;;;8.30;84.60;;;;;;5010832;28;20206;-81
2022/03/01 14:28:26;;;;;;;18.83;11.30;;;8.20;83.90;;;;;;5010682;28;20206;-81
2022/03/01 14:30:51;;;;;;;19.27;11.37;;;8.10;85.30;;;;;;5012489;28;20238;-81
2022/03/01 14:33:17;;;;;;;17.70;11.93;;;8.10;84.80;;;;;;5011912;28;20175;-81
2022/03/01 14:35:44;;;;;;;24.37;12.77;;;8.10;85.90;;;;;;5012522;28;20202;-80
2022/03/01 14:38:09;;;;;;;23.63;12.07;;;8.00;86.40;;;;;;5016200;28;20210;-80
2022/03/01 14:40:36;;;;;;;21.13;12.17;;;8.00;87.90;;;;;;5019562;28;20245;-81
2022/03/01 14:43:03;;;;;;;20.17;11.57;;;7.90;88.10;;;;;;5020058;28;20193;-81
2022/03/01 14:45:28;;;;;;;28.97;12.37;;;8.00;88.60;;;;;;5019606;28;20204;-80
2022/03/01 14:47:54;;;;;;;22.03;12.00;;;7.90;87.30;;;;;;5018662;28;20198;-80